Terminal Aerodrome Forecast
Issued by NWS Raleigh/Durham, NC

Home | Current Version | Previous Version | Text Only | Print | Product List | Glossary On
Versions: 1 2 3 4 5 6 7 8 9 10 11 12 13 14 15 16 17 18 19 20 21 22 23 24 25 26 27 28 29 30 31 32
000
FTUS42 KRAH 060233 AAB
TAFRDU
TAF AMD
KRDU 060233Z 0603/0624 29004KT 6SM -RA BR OVC007
      TEMPO 0609/0612 4SM -RA OVC004
     FM061500 34007KT P6SM OVC015
     FM061800 30007KT P6SM OVC050
      TEMPO 0618/0621 P6SM -TSRA BKN050CB=

USA.gov is the U.S. government's official web portal to all federal, state and local government web resources and services.